AIC113 VOTV-VOCI
Flight info
| Callsign | AIC113 |
|---|---|
| Flight time | 0h 27m |
| Altitude | 13000 |
| Route | NUKET CIA |
| Aircraft | A35K/H-SDE2E3GHIJ3J4J5LM1ORWXY/LB1D1 |
Departure
| Time | 2026-04-19 21:09 |
|---|---|
| Airport | Thiruvananthapuram International Airport (VOTV) |
Arrival
| Time | 2026-04-19 21:36 |
|---|---|
| Airport | Cochin International Airport (VOCI) |
| Time | Latitude | Longitude | Altitude | Speed | Heading |
|---|---|---|---|---|---|
| 2026-04-19 20:54 | 8.48493 | 76.92262 | 33 ft | 0 kts | 95° |
| 2026-04-19 20:56 | 8.47772 | 76.91920 | 39 ft | 0 kts | 186° |
| 2026-04-19 21:02 | 8.47792 | 76.91922 | 39 ft | 4 kts | 189° |
| 2026-04-19 21:02 | 8.47819 | 76.91927 | 38 ft | 4 kts | 192° |
| 2026-04-19 21:03 | 8.47845 | 76.91933 | 37 ft | 4 kts | 191° |
| 2026-04-19 21:03 | 8.47863 | 76.91937 | 36 ft | 4 kts | 186° |
| 2026-04-19 21:03 | 8.47894 | 76.91936 | 36 ft | 4 kts | 156° |
| 2026-04-19 21:03 | 8.47911 | 76.91927 | 35 ft | 4 kts | 130° |
| 2026-04-19 21:04 | 8.47921 | 76.91909 | 37 ft | 4 kts | 99° |
| 2026-04-19 21:04 | 8.47924 | 76.91891 | 37 ft | 4 kts | 94° |
| 2026-04-19 21:04 | 8.47925 | 76.91879 | 37 ft | 4 kts | 95° |
| 2026-04-19 21:06 | 8.47924 | 76.91886 | 38 ft | 2 kts | 95° |
| 2026-04-19 21:07 | 8.47922 | 76.91912 | 37 ft | 5 kts | 95° |
| 2026-04-19 21:07 | 8.47917 | 76.91958 | 35 ft | 8 kts | 95° |
| 2026-04-19 21:07 | 8.47912 | 76.92022 | 39 ft | 10 kts | 95° |
| 2026-04-19 21:07 | 8.47904 | 76.92102 | 39 ft | 12 kts | 97° |
| 2026-04-19 21:08 | 8.47893 | 76.92194 | 40 ft | 14 kts | 96° |
| 2026-04-19 21:08 | 8.47885 | 76.92282 | 41 ft | 8 kts | 82° |
| 2026-04-19 21:08 | 8.47901 | 76.92290 | 41 ft | 1 kts | 356° |
| 2026-04-19 21:08 | 8.47922 | 76.92274 | 40 ft | 6 kts | 321° |
| 2026-04-19 21:09 | 8.47989 | 76.92212 | 40 ft | 36 kts | 317° |
| 2026-04-19 21:09 | 8.48408 | 76.91804 | 39 ft | 130 kts | 316° |
| 2026-04-19 21:09 | 8.49233 | 76.91002 | 306 ft | 186 kts | 318° |
| 2026-04-19 21:09 | 8.50194 | 76.90149 | 1429 ft | 184 kts | 320° |
| 2026-04-19 21:10 | 8.51186 | 76.89304 | 2362 ft | 186 kts | 317° |
| 2026-04-19 21:10 | 8.52319 | 76.88545 | 2569 ft | 211 kts | 343° |
| 2026-04-19 21:10 | 8.53834 | 76.88481 | 2917 ft | 227 kts | 2° |
| 2026-04-19 21:10 | 8.55475 | 76.88352 | 3379 ft | 247 kts | 348° |
| 2026-04-19 21:11 | 8.57179 | 76.87939 | 4414 ft | 255 kts | 344° |
| 2026-04-19 21:11 | 8.58903 | 76.87399 | 5781 ft | 262 kts | 343° |
| 2026-04-19 21:11 | 8.60624 | 76.86795 | 7026 ft | 270 kts | 342° |
| 2026-04-19 21:11 | 8.62414 | 76.86127 | 8252 ft | 277 kts | 342° |
| 2026-04-19 21:12 | 8.64230 | 76.85424 | 9496 ft | 282 kts | 342° |
| 2026-04-19 21:12 | 8.66085 | 76.84694 | 10492 ft | 293 kts | 341° |
| 2026-04-19 21:12 | 8.68063 | 76.83911 | 11049 ft | 318 kts | 340° |
| 2026-04-19 21:12 | 8.70195 | 76.83060 | 11564 ft | 339 kts | 340° |
| 2026-04-19 21:13 | 8.72437 | 76.82158 | 12180 ft | 356 kts | 340° |
| 2026-04-19 21:13 | 8.74802 | 76.81206 | 12670 ft | 376 kts | 339° |
| 2026-04-19 21:13 | 8.77298 | 76.80201 | 12847 ft | 392 kts | 339° |
| 2026-04-19 21:13 | 8.79888 | 76.79157 | 12865 ft | 408 kts | 339° |
| 2026-04-19 21:14 | 8.82542 | 76.78087 | 12857 ft | 411 kts | 339° |
| 2026-04-19 21:14 | 8.85200 | 76.77015 | 12857 ft | 411 kts | 339° |
| 2026-04-19 21:14 | 8.87850 | 76.75946 | 12858 ft | 410 kts | 339° |
| 2026-04-19 21:14 | 8.90505 | 76.74875 | 12857 ft | 410 kts | 339° |
| 2026-04-19 21:15 | 8.93156 | 76.73807 | 12860 ft | 410 kts | 339° |
| 2026-04-19 21:15 | 8.95815 | 76.72735 | 12856 ft | 410 kts | 339° |
| 2026-04-19 21:15 | 8.98467 | 76.71666 | 12857 ft | 410 kts | 339° |
| 2026-04-19 21:15 | 9.01121 | 76.70596 | 12856 ft | 411 kts | 339° |
| 2026-04-19 21:16 | 9.03778 | 76.69524 | 12858 ft | 411 kts | 339° |
| 2026-04-19 21:16 | 9.06439 | 76.68451 | 12856 ft | 411 kts | 339° |
| 2026-04-19 21:16 | 9.09061 | 76.67393 | 12857 ft | 411 kts | 339° |
| 2026-04-19 21:16 | 9.11720 | 76.66321 | 12856 ft | 411 kts | 339° |
| 2026-04-19 21:17 | 9.14369 | 76.65252 | 12856 ft | 411 kts | 339° |
| 2026-04-19 21:17 | 9.17037 | 76.64175 | 12855 ft | 411 kts | 339° |
| 2026-04-19 21:17 | 9.19679 | 76.63109 | 12853 ft | 410 kts | 339° |
| 2026-04-19 21:17 | 9.22331 | 76.62038 | 12474 ft | 409 kts | 339° |
| 2026-04-19 21:18 | 9.24980 | 76.60968 | 11782 ft | 408 kts | 340° |
| 2026-04-19 21:18 | 9.27570 | 76.59921 | 11477 ft | 394 kts | 340° |
| 2026-04-19 21:18 | 9.30073 | 76.58908 | 11202 ft | 381 kts | 340° |
| 2026-04-19 21:18 | 9.32492 | 76.57930 | 10938 ft | 368 kts | 340° |
| 2026-04-19 21:19 | 9.34835 | 76.56983 | 10692 ft | 357 kts | 340° |
| 2026-04-19 21:19 | 9.37105 | 76.56065 | 10452 ft | 345 kts | 340° |
| 2026-04-19 21:19 | 9.39305 | 76.55176 | 10222 ft | 334 kts | 340° |
| 2026-04-19 21:19 | 9.41362 | 76.54344 | 10027 ft | 324 kts | 341° |
| 2026-04-19 21:20 | 9.43481 | 76.53487 | 9831 ft | 313 kts | 341° |
| 2026-04-19 21:20 | 9.45472 | 76.52682 | 9611 ft | 304 kts | 341° |
| 2026-04-19 21:20 | 9.47421 | 76.51895 | 9259 ft | 299 kts | 341° |
| 2026-04-19 21:20 | 9.49347 | 76.51118 | 8894 ft | 296 kts | 341° |
| 2026-04-19 21:21 | 9.51247 | 76.50351 | 8527 ft | 294 kts | 341° |
| 2026-04-19 21:21 | 9.53117 | 76.49596 | 8158 ft | 292 kts | 341° |
| 2026-04-19 21:21 | 9.54998 | 76.48835 | 7774 ft | 290 kts | 341° |
| 2026-04-19 21:21 | 9.56867 | 76.48080 | 7404 ft | 289 kts | 341° |
| 2026-04-19 21:22 | 9.58728 | 76.47327 | 7023 ft | 287 kts | 340° |
| 2026-04-19 21:22 | 9.60582 | 76.46577 | 6653 ft | 286 kts | 340° |
| 2026-04-19 21:22 | 9.62421 | 76.45833 | 6280 ft | 284 kts | 340° |
| 2026-04-19 21:22 | 9.64259 | 76.45091 | 5888 ft | 283 kts | 340° |
| 2026-04-19 21:23 | 9.66078 | 76.44355 | 5536 ft | 280 kts | 340° |
| 2026-04-19 21:23 | 9.67880 | 76.43627 | 5184 ft | 278 kts | 339° |
| 2026-04-19 21:23 | 9.69665 | 76.42905 | 4835 ft | 275 kts | 339° |
| 2026-04-19 21:23 | 9.71437 | 76.42188 | 4481 ft | 273 kts | 338° |
| 2026-04-19 21:24 | 9.73191 | 76.41476 | 4114 ft | 270 kts | 338° |
| 2026-04-19 21:24 | 9.74874 | 76.40793 | 3775 ft | 268 kts | 338° |
| 2026-04-19 21:24 | 9.76582 | 76.40101 | 3420 ft | 266 kts | 338° |
| 2026-04-19 21:24 | 9.78272 | 76.39416 | 3069 ft | 264 kts | 338° |
| 2026-04-19 21:25 | 9.79943 | 76.38739 | 2709 ft | 262 kts | 338° |
| 2026-04-19 21:25 | 9.81625 | 76.38056 | 2576 ft | 260 kts | 338° |
| 2026-04-19 21:25 | 9.83311 | 76.37372 | 2443 ft | 261 kts | 338° |
| 2026-04-19 21:25 | 9.84996 | 76.36689 | 2340 ft | 257 kts | 338° |
| 2026-04-19 21:26 | 9.86625 | 76.36029 | 2211 ft | 246 kts | 338° |
| 2026-04-19 21:26 | 9.88177 | 76.35400 | 2077 ft | 236 kts | 338° |
| 2026-04-19 21:26 | 9.89667 | 76.34795 | 1946 ft | 226 kts | 338° |
| 2026-04-19 21:26 | 9.91090 | 76.34218 | 1829 ft | 214 kts | 338° |
| 2026-04-19 21:27 | 9.92433 | 76.33673 | 1737 ft | 201 kts | 338° |
| 2026-04-19 21:27 | 9.93678 | 76.33169 | 1694 ft | 184 kts | 338° |
| 2026-04-19 21:27 | 9.94791 | 76.32718 | 1679 ft | 160 kts | 338° |
| 2026-04-19 21:27 | 9.95760 | 76.32325 | 1671 ft | 143 kts | 338° |
| 2026-04-19 21:28 | 9.96681 | 76.31951 | 1682 ft | 142 kts | 338° |
| 2026-04-19 21:28 | 9.97603 | 76.31577 | 1688 ft | 143 kts | 337° |
| 2026-04-19 21:28 | 9.98528 | 76.31201 | 1693 ft | 144 kts | 338° |
| 2026-04-19 21:28 | 9.99457 | 76.30824 | 1698 ft | 144 kts | 338° |
| 2026-04-19 21:29 | 10.00384 | 76.30448 | 1687 ft | 143 kts | 337° |
| 2026-04-19 21:29 | 10.01311 | 76.30071 | 1696 ft | 144 kts | 338° |
| 2026-04-19 21:29 | 10.02239 | 76.29695 | 1693 ft | 143 kts | 338° |
| 2026-04-19 21:29 | 10.03162 | 76.29321 | 1691 ft | 143 kts | 337° |
| 2026-04-19 21:30 | 10.04089 | 76.28944 | 1696 ft | 143 kts | 337° |
| 2026-04-19 21:30 | 10.05015 | 76.28569 | 1695 ft | 143 kts | 337° |
| 2026-04-19 21:30 | 10.05943 | 76.28192 | 1692 ft | 143 kts | 337° |
| 2026-04-19 21:30 | 10.06856 | 76.27821 | 1696 ft | 143 kts | 337° |
| 2026-04-19 21:31 | 10.07783 | 76.27445 | 1692 ft | 143 kts | 337° |
| 2026-04-19 21:31 | 10.08709 | 76.27070 | 1693 ft | 143 kts | 337° |
| 2026-04-19 21:31 | 10.09632 | 76.26695 | 1692 ft | 143 kts | 337° |
| 2026-04-19 21:31 | 10.10557 | 76.26319 | 1690 ft | 143 kts | 337° |
| 2026-04-19 21:32 | 10.11466 | 76.25950 | 1695 ft | 143 kts | 337° |
| 2026-04-19 21:32 | 10.12421 | 76.25637 | 1694 ft | 144 kts | 349° |
| 2026-04-19 21:32 | 10.13416 | 76.25729 | 1691 ft | 146 kts | 19° |
| 2026-04-19 21:32 | 10.14209 | 76.26349 | 1679 ft | 148 kts | 60° |
| 2026-04-19 21:33 | 10.14607 | 76.27306 | 1698 ft | 148 kts | 74° |
| 2026-04-19 21:33 | 10.14704 | 76.28339 | 1699 ft | 148 kts | 90° |
| 2026-04-19 21:33 | 10.14710 | 76.29381 | 1693 ft | 147 kts | 88° |
| 2026-04-19 21:33 | 10.14752 | 76.30429 | 1588 ft | 149 kts | 87° |
| 2026-04-19 21:34 | 10.14797 | 76.31475 | 1386 ft | 148 kts | 87° |
| 2026-04-19 21:34 | 10.14835 | 76.32510 | 1192 ft | 146 kts | 88° |
| 2026-04-19 21:34 | 10.14873 | 76.33540 | 1004 ft | 145 kts | 88° |
| 2026-04-19 21:34 | 10.14910 | 76.34558 | 824 ft | 144 kts | 88° |
| 2026-04-19 21:35 | 10.14947 | 76.35569 | 632 ft | 143 kts | 88° |
| 2026-04-19 21:35 | 10.14985 | 76.36560 | 374 ft | 141 kts | 87° |
| 2026-04-19 21:35 | 10.15032 | 76.37545 | 200 ft | 138 kts | 88° |
| 2026-04-19 21:35 | 10.15069 | 76.38521 | 65 ft | 135 kts | 89° |
| 2026-04-19 21:36 | 10.15084 | 76.39407 | 87 ft | 115 kts | 88° |
| 2026-04-19 21:36 | 10.15117 | 76.40162 | 45 ft | 96 kts | 87° |
| 2026-04-19 21:36 | 10.15138 | 76.40759 | 45 ft | 72 kts | 87° |
| 2026-04-19 21:36 | 10.15156 | 76.41196 | 45 ft | 49 kts | 88° |
| 2026-04-19 21:37 | 10.15160 | 76.41281 | 45 ft | 4 kts | 81° |
| 2026-04-19 21:37 | 10.15165 | 76.41381 | 44 ft | 17 kts | 92° |
| 2026-04-19 21:37 | 10.15167 | 76.41507 | 44 ft | 18 kts | 78° |
| 2026-04-19 21:37 | 10.15250 | 76.41585 | 45 ft | 17 kts | 5° |
| 2026-04-19 21:38 | 10.15333 | 76.41531 | 45 ft | 16 kts | 273° |
| 2026-04-19 21:38 | 10.15337 | 76.41416 | 45 ft | 17 kts | 271° |
| 2026-04-19 21:38 | 10.15337 | 76.41291 | 45 ft | 19 kts | 269° |
| 2026-04-19 21:38 | 10.15333 | 76.41149 | 44 ft | 20 kts | 262° |
| 2026-04-19 21:39 | 10.15319 | 76.40931 | 45 ft | 64 kts | 268° |
| 2026-04-19 21:39 | 10.15291 | 76.40169 | 257 ft | 134 kts | 268° |
| 2026-04-19 21:39 | 10.15267 | 76.39217 | 723 ft | 125 kts | 270° |
| 2026-04-19 21:39 | 10.15338 | 76.38304 | 891 ft | 141 kts | 278° |
| 2026-04-19 21:40 | 10.15983 | 76.36268 | 1490 ft | 157 kts | 298° |
| 2026-04-19 21:40 | 10.16597 | 76.35342 | 1803 ft | 164 kts | 309° |
| 2026-04-19 21:40 | 10.16224 | 76.34507 | 1815 ft | 170 kts | 171° |
| 2026-04-19 21:41 | 10.15714 | 76.35358 | 2030 ft | 166 kts | 78° |
| 2026-04-19 21:41 | 10.15360 | 76.36428 | 1416 ft | 168 kts | 127° |
| 2026-04-19 21:41 | 10.15209 | 76.37638 | 684 ft | 176 kts | 102° |
| 2026-04-19 21:41 | 10.15100 | 76.38854 | 171 ft | 173 kts | 90° |
| 2026-04-19 21:42 | 10.15117 | 76.39984 | 85 ft | 147 kts | 87° |
| 2026-04-19 21:42 | 10.15173 | 76.40935 | 155 ft | 134 kts | 88° |
| 2026-04-19 21:42 | 10.15198 | 76.42060 | 378 ft | 193 kts | 88° |
| 2026-04-19 21:42 | 10.15287 | 76.43471 | 624 ft | 193 kts | 85° |
| 2026-04-19 21:43 | 10.15351 | 76.44711 | 661 ft | 159 kts | 88° |
| 2026-04-19 21:43 | 10.15412 | 76.45747 | 636 ft | 147 kts | 78° |
| 2026-04-19 21:43 | 10.15821 | 76.46872 | 725 ft | 195 kts | 23° |
| 2026-04-19 21:43 | 10.17155 | 76.47183 | 1333 ft | 207 kts | 48° |
| 2026-04-19 21:44 | 10.17101 | 76.48513 | 797 ft | 212 kts | 137° |
| 2026-04-19 21:44 | 10.15792 | 76.48578 | 801 ft | 174 kts | 212° |
| 2026-04-19 21:44 | 10.15352 | 76.47712 | 1034 ft | 125 kts | 283° |
| 2026-04-19 21:44 | 10.15562 | 76.46832 | 743 ft | 132 kts | 253° |
| 2026-04-19 21:45 | 10.15354 | 76.45878 | 743 ft | 138 kts | 253° |
| 2026-04-19 21:45 | 10.15307 | 76.44912 | 606 ft | 140 kts | 277° |
| 2026-04-19 21:45 | 10.15304 | 76.43854 | 495 ft | 150 kts | 263° |
| 2026-04-19 21:45 | 10.15215 | 76.42758 | 310 ft | 155 kts | 263° |
| 2026-04-19 21:46 | 10.15171 | 76.41706 | 152 ft | 152 kts | 272° |
| 2026-04-19 21:46 | 10.15140 | 76.40662 | 68 ft | 138 kts | 270° |
| 2026-04-19 21:46 | 10.15098 | 76.39769 | 51 ft | 120 kts | 269° |
| 2026-04-19 21:46 | 10.15073 | 76.38977 | 44 ft | 98 kts | 268° |
| 2026-04-19 21:47 | 10.15083 | 76.38496 | 43 ft | 14 kts | 315° |
| 2026-04-19 21:47 | 10.15089 | 76.38493 | 44 ft | 1 kts | 330° |
| 2026-04-19 21:47 | 10.15092 | 76.38491 | 44 ft | 0 kts | 330° |